FZRN weather

Nyunzu Airport
Nyunzu, Katanga Province, Congo (Kinshasa)

Public forecast

Using degrees Celsius for public forecast. Weather courtesy of forecast.io.

Closest aviation weather report (METAR) to Nyunzu Airport

Closest report is Kigoma Airport, 118.0 nm (218.5 km) ENE. Retrieved 2020/06/02 09:00 UTC (1 hour ago):

HTKA 020900Z 09016KT 9999 FEW026 28/15 Q1019 NOSIG

Closest aviation forecast (TAF) to Nyunzu Airport

Forecast is more than 12 hours old.

Closest forecast is Kigoma Airport, 118.0 nm (218.5 km) ENE. Retrieved 2020/05/21 06:24 UTC (12 days ago):

TAF HTKA 210500Z 2106/2206 12005KT 9999 SCT020 FEW021CB SCT080 TEMPO 2106/2143 12010KT